createdAt,value
2018-05-13T00:02:10.677Z,76.88
2018-05-13T00:04:38.252Z,77.01
2018-05-13T00:07:05.864Z,77.21
2018-05-13T00:09:33.441Z,77.02
2018-05-13T00:12:01.064Z,77.02
2018-05-13T00:14:28.681Z,77.06
2018-05-13T00:16:56.260Z,77.35
2018-05-13T00:19:24.417Z,77.45
2018-05-13T00:21:52.049Z,77.62
2018-05-13T00:24:19.669Z,77.57
2018-05-13T00:26:47.258Z,77.48
2018-05-13T00:29:14.885Z,77.49
2018-05-13T00:31:42.461Z,77.58
2018-05-13T00:34:10.105Z,77.62
2018-05-13T00:36:37.689Z,77.57
2018-05-13T00:39:06.394Z,77.48
2018-05-13T00:41:34.160Z,77.38
2018-05-13T00:44:01.741Z,77.32
2018-05-13T00:46:29.372Z,77.25
2018-05-13T00:48:56.952Z,77.19
2018-05-13T00:51:24.572Z,77.20
2018-05-13T00:53:52.544Z,77.32
2018-05-13T00:56:20.165Z,77.48
2018-05-13T00:58:47.872Z,77.44
2018-05-13T01:01:15.494Z,77.24
2018-05-13T01:03:43.104Z,77.21
2018-05-13T01:06:10.726Z,77.18
2018-05-13T01:08:38.315Z,77.12
2018-05-13T01:11:05.929Z,77.08
2018-05-13T01:13:33.506Z,77.08
2018-05-13T01:16:01.121Z,76.98
2018-05-13T01:18:29.245Z,77.00
2018-05-13T01:20:56.871Z,76.93
2018-05-13T01:23:24.584Z,76.89
2018-05-13T01:25:52.161Z,76.77
2018-05-13T01:28:19.777Z,76.74
2018-05-13T01:30:47.361Z,76.38
2018-05-13T01:33:14.976Z,76.26
2018-05-13T01:35:42.564Z,76.37
2018-05-13T01:38:10.169Z,76.33
2018-05-13T01:40:38.360Z,76.36
2018-05-13T01:43:05.936Z,76.35
2018-05-13T01:45:33.548Z,76.50
2018-05-13T01:48:01.164Z,76.47
2018-05-13T01:50:28.778Z,76.60
2018-05-13T01:52:56.388Z,76.55
2018-05-13T01:55:23.965Z,76.52
2018-05-13T01:57:51.584Z,76.77
2018-05-13T02:00:19.205Z,76.58
2018-05-13T02:02:46.821Z,76.51
2018-05-13T02:05:14.760Z,76.34
2018-05-13T02:07:42.344Z,76.40
2018-05-13T02:10:09.917Z,76.33
2018-05-13T02:12:37.533Z,76.49
2018-05-13T02:15:05.169Z,76.60
2018-05-13T02:17:33.508Z,76.69
2018-05-13T02:20:01.088Z,76.70
2018-05-13T02:22:28.743Z,76.82
2018-05-13T02:24:57.981Z,76.91
2018-05-13T02:27:25.601Z,77.34
2018-05-13T02:29:53.185Z,77.54
2018-05-13T02:32:20.808Z,77.56
2018-05-13T02:34:48.396Z,77.74
2018-05-13T02:37:16.231Z,78.03
2018-05-13T02:39:43.821Z,78.30
2018-05-13T02:42:11.434Z,78.33
2018-05-13T02:44:39.061Z,78.54
2018-05-13T02:47:06.689Z,78.67
2018-05-13T02:49:34.273Z,78.78
2018-05-13T02:52:02.205Z,78.87
2018-05-13T02:54:29.780Z,79.00
2018-05-13T02:56:57.401Z,79.09
2018-05-13T02:59:25.594Z,79.15
2018-05-13T03:01:53.227Z,79.24
2018-05-13T03:04:20.810Z,79.37
2018-05-13T03:06:48.422Z,79.59
2018-05-13T03:09:16.585Z,79.53
2018-05-13T03:11:44.167Z,79.91
2018-05-13T03:14:11.745Z,79.65
2018-05-13T03:16:39.367Z,79.62
2018-05-13T03:19:07.006Z,79.79
2018-05-13T03:21:34.649Z,79.77
2018-05-13T03:24:02.229Z,79.67
2018-05-13T03:26:29.850Z,79.76
2018-05-13T03:28:57.905Z,79.94
2018-05-13T03:31:25.492Z,79.82
2018-05-13T03:33:53.078Z,79.91
2018-05-13T03:36:20.706Z,80.09
2018-05-13T03:38:48.517Z,80.22
2018-05-13T03:41:16.220Z,80.18
2018-05-13T03:43:43.976Z,80.22
2018-05-13T03:46:11.581Z,80.11
2018-05-13T03:48:39.217Z,80.11
2018-05-13T03:51:06.793Z,80.20
2018-05-13T03:53:34.417Z,80.46
2018-05-13T03:56:02.042Z,79.95
2018-05-13T03:58:29.620Z,79.86
2018-05-13T04:00:57.402Z,79.96
2018-05-13T04:03:25.020Z,79.92
2018-05-13T04:05:52.652Z,79.85
2018-05-13T04:11:29.641Z,79.17
2018-05-13T04:14:08.862Z,79.11
2018-05-13T04:16:36.476Z,78.94
2018-05-13T04:19:04.672Z,78.68
2018-05-13T04:21:32.288Z,78.43
2018-05-13T04:23:59.869Z,78.15
2018-05-13T04:26:27.506Z,78.18
2018-05-13T04:28:55.134Z,77.38
2018-05-13T04:31:22.715Z,77.10
2018-05-13T04:33:50.337Z,77.00
2018-05-13T04:36:17.908Z,76.86
2018-05-13T04:38:45.520Z,76.26
2018-05-13T04:41:13.142Z,75.82
2018-05-13T04:43:40.733Z,73.86
2018-05-13T04:46:08.369Z,71.85
2018-05-13T04:48:35.970Z,70.64
2018-05-13T04:51:03.600Z,71.04
2018-05-13T04:53:31.181Z,70.66
2018-05-13T04:55:58.809Z,69.36
2018-05-13T04:58:26.426Z,68.08
2018-05-13T05:00:54.053Z,65.87
2018-05-13T05:03:21.632Z,64.38
2018-05-13T05:05:49.241Z,62.97
2018-05-13T05:08:16.890Z,61.90
2018-05-13T05:10:44.472Z,62.29
2018-05-13T05:13:12.948Z,61.02
2018-05-13T05:15:40.781Z,60.69
2018-05-13T05:18:09.231Z,61.59
2018-05-13T05:20:36.884Z,58.95
2018-05-13T05:23:04.478Z,59.56
2018-05-13T05:25:32.107Z,59.15
2018-05-13T05:28:00.298Z,59.43
2018-05-13T05:30:27.973Z,58.23
2018-05-13T05:32:55.552Z,55.99
2018-05-13T05:35:23.180Z,56.25
2018-05-13T05:37:51.425Z,57.17
2018-05-13T05:40:18.949Z,56.06
2018-05-13T05:42:47.750Z,55.25
2018-05-13T05:45:15.336Z,55.97
2018-05-13T05:47:42.957Z,55.27
2018-05-13T05:50:10.540Z,53.19
2018-05-13T05:52:38.200Z,50.93
2018-05-13T05:55:05.789Z,50.48
2018-05-13T05:57:33.373Z,48.61
2018-05-13T06:00:01.010Z,47.97
2018-05-13T06:02:28.636Z,49.00
2018-05-13T06:04:56.813Z,49.16
2018-05-13T06:07:25.006Z,48.79
2018-05-13T06:09:52.591Z,46.35
2018-05-13T06:12:20.226Z,48.84
2018-05-13T06:14:47.841Z,46.68
2018-05-13T06:17:15.428Z,45.29
2018-05-13T06:19:43.367Z,45.19
2018-05-13T06:22:10.905Z,45.90
2018-05-13T06:24:38.525Z,46.57
2018-05-13T06:27:06.140Z,47.44
2018-05-13T06:29:34.013Z,46.84
2018-05-13T06:32:01.737Z,45.47
2018-05-13T06:34:29.321Z,44.48
2018-05-13T06:36:56.937Z,45.87
2018-05-13T06:39:24.718Z,48.16
2018-05-13T06:41:52.339Z,48.77
2018-05-13T06:44:19.936Z,46.96
2018-05-13T06:46:47.557Z,45.97
2018-05-13T06:49:15.154Z,45.90
2018-05-13T06:51:42.764Z,46.93
2018-05-13T06:54:10.389Z,45.57
2018-05-13T06:56:38.075Z,44.27
2018-05-13T06:59:05.705Z,43.30
2018-05-13T07:01:34.045Z,45.57
2018-05-13T07:04:01.785Z,44.86
2018-05-13T07:06:29.445Z,47.46
2018-05-13T07:08:57.100Z,45.31
2018-05-13T07:11:24.970Z,47.01
2018-05-13T07:13:52.772Z,48.74
2018-05-13T07:16:20.367Z,45.40
2018-05-13T07:18:48.047Z,47.05
2018-05-13T07:21:15.656Z,46.77
2018-05-13T07:23:43.324Z,46.75
2018-05-13T07:26:10.955Z,48.11
2018-05-13T07:28:38.582Z,46.33
2018-05-13T07:31:06.494Z,46.53
2018-05-13T07:33:34.071Z,48.18
2018-05-13T07:36:01.688Z,46.49
2018-05-13T07:38:29.328Z,48.48
2018-05-13T07:40:56.909Z,49.07
2018-05-13T07:43:24.787Z,48.91
2018-05-13T07:45:52.834Z,50.85
2018-05-13T07:48:20.609Z,53.56
2018-05-13T07:50:48.851Z,55.51
2018-05-13T07:53:17.429Z,52.56
2018-05-13T07:55:45.070Z,52.13
2018-05-13T07:58:12.665Z,52.33
2018-05-13T08:00:40.252Z,52.91
2018-05-13T08:03:08.965Z,51.96
2018-05-13T08:05:37.916Z,53.28
2018-05-13T08:08:06.704Z,53.62
2018-05-13T08:10:35.371Z,50.59
2018-05-13T08:13:03.225Z,48.50
2018-05-13T08:15:30.901Z,47.90
2018-05-13T08:17:58.867Z,46.96
2018-05-13T08:20:26.549Z,48.07
2018-05-13T08:22:54.200Z,47.87
2018-05-13T08:25:22.298Z,50.79
2018-05-13T08:27:49.908Z,51.38
2018-05-13T08:30:17.534Z,50.26
2018-05-13T08:32:45.174Z,48.88
2018-05-13T08:35:12.923Z,47.59
2018-05-13T08:37:40.509Z,47.26
2018-05-13T08:40:08.582Z,45.38
2018-05-13T08:42:36.940Z,46.08
2018-05-13T08:45:04.552Z,46.88
2018-05-13T08:47:33.609Z,47.31
2018-05-13T08:50:01.232Z,48.97
2018-05-13T08:52:28.835Z,48.31
2018-05-13T08:54:57.069Z,47.28
2018-05-13T08:57:25.262Z,49.52
2018-05-13T08:59:54.569Z,49.07
2018-05-13T09:02:22.152Z,48.56
2018-05-13T09:04:50.433Z,48.28
2018-05-13T09:07:18.024Z,48.72
2018-05-13T09:09:46.275Z,47.55
2018-05-13T09:12:17.588Z,49.54
2018-05-13T09:14:45.524Z,51.95
2018-05-13T09:17:14.336Z,51.23
2018-05-13T09:22:32.340Z,52.82
2018-05-13T09:24:59.931Z,53.15
2018-05-13T09:27:27.516Z,52.71
2018-05-13T09:29:55.826Z,52.32
2018-05-13T09:32:23.453Z,52.81
2018-05-13T09:34:51.108Z,53.21
2018-05-13T09:37:18.807Z,53.07
2018-05-13T09:39:46.576Z,52.81
2018-05-13T09:42:14.196Z,53.99
2018-05-13T09:44:42.132Z,53.02
2018-05-13T09:47:09.710Z,53.21
2018-05-13T09:49:37.296Z,52.54
2018-05-13T09:52:04.967Z,50.68
2018-05-13T09:54:32.595Z,51.31
2018-05-13T09:57:06.456Z,50.97
2018-05-13T09:59:38.619Z,51.86
2018-05-13T10:02:11.967Z,52.77
2018-05-13T10:04:46.350Z,53.08
2018-05-13T10:07:14.194Z,52.95
2018-05-13T10:09:46.564Z,52.24
2018-05-13T10:12:14.602Z,52.90
2018-05-13T10:14:42.246Z,51.71
2018-05-13T10:17:09.829Z,52.90
2018-05-13T10:19:37.524Z,52.34
2018-05-13T10:22:05.314Z,52.20
2018-05-13T10:24:33.398Z,50.91
2018-05-13T10:27:01.033Z,52.69
2018-05-13T10:29:28.675Z,51.40
2018-05-13T10:31:56.399Z,50.77
2018-05-13T10:34:25.515Z,52.37
2018-05-13T10:36:55.052Z,52.56
2018-05-13T10:39:23.460Z,52.70
2018-05-13T10:41:51.297Z,53.88
2018-05-13T10:44:18.983Z,53.84
2018-05-13T10:46:46.653Z,51.02
2018-05-13T10:49:17.002Z,51.73
2018-05-13T10:51:44.620Z,53.31
2018-05-13T10:54:12.273Z,53.30
2018-05-13T10:56:40.086Z,52.48
2018-05-13T10:59:07.668Z,52.52
2018-05-13T11:01:35.296Z,51.38
2018-05-13T11:04:03.018Z,50.93
2018-05-13T11:06:30.600Z,52.19
2018-05-13T11:08:58.230Z,51.51
2018-05-13T11:11:26.376Z,52.51
2018-05-13T11:13:53.960Z,50.71
2018-05-13T11:16:21.851Z,52.46
2018-05-13T11:18:50.437Z,52.18
2018-05-13T11:21:18.037Z,51.09
2018-05-13T11:23:45.633Z,50.10
2018-05-13T11:26:13.263Z,52.84
2018-05-13T11:28:40.855Z,52.21
2018-05-13T11:31:08.461Z,52.54
2018-05-13T11:33:36.081Z,51.89
2018-05-13T11:36:03.675Z,51.38
2018-05-13T11:38:31.290Z,52.07
2018-05-13T11:40:58.864Z,53.65
2018-05-13T11:43:26.588Z,54.75
2018-05-13T11:45:54.196Z,54.31
2018-05-13T11:48:21.827Z,52.71
2018-05-13T11:50:49.661Z,52.26
2018-05-13T11:53:17.473Z,53.40
2018-05-13T11:55:45.056Z,54.63
2018-05-13T11:58:12.691Z,53.59
2018-05-13T12:00:40.468Z,52.49
2018-05-13T12:03:08.057Z,53.23
2018-05-13T12:05:36.252Z,53.82
2018-05-13T12:08:04.042Z,54.43
2018-05-13T12:10:32.305Z,54.42
2018-05-13T12:13:00.070Z,54.15
2018-05-13T12:15:28.250Z,53.12
2018-05-13T12:17:55.832Z,53.33
2018-05-13T12:20:23.421Z,54.94
2018-05-13T12:22:51.049Z,54.25
2018-05-13T12:25:18.949Z,54.84
2018-05-13T12:27:47.140Z,54.34
2018-05-13T12:30:14.737Z,54.52
2018-05-13T12:32:42.361Z,54.94
2018-05-13T12:35:09.953Z,55.36
2018-05-13T12:37:37.586Z,54.15
2018-05-13T12:40:05.199Z,53.97
2018-05-13T12:42:32.826Z,54.01
2018-05-13T12:45:00.408Z,51.87
2018-05-13T12:47:29.254Z,53.53
2018-05-13T12:49:57.271Z,51.83
2018-05-13T12:52:24.857Z,52.22
2018-05-13T12:54:52.910Z,52.75
2018-05-13T12:57:20.537Z,53.54
2018-05-13T12:59:50.048Z,52.84
2018-05-13T13:02:17.680Z,51.87
2018-05-13T13:04:46.564Z,51.01
2018-05-13T13:07:14.986Z,51.59
2018-05-13T13:09:42.629Z,51.96
2018-05-13T13:12:11.237Z,52.45
2018-05-13T13:14:38.861Z,51.92
2018-05-13T13:17:07.409Z,52.62
2018-05-13T13:19:35.094Z,52.28
2018-05-13T13:22:03.032Z,52.23
2018-05-13T13:24:31.397Z,51.00
2018-05-13T13:26:59.061Z,51.67
2018-05-13T13:29:26.728Z,51.92
2018-05-13T13:31:54.352Z,50.74
2018-05-13T13:34:21.945Z,50.73
2018-05-13T13:36:49.570Z,50.14
2018-05-13T13:39:17.197Z,50.46
2018-05-13T13:41:44.830Z,49.71
2018-05-13T13:44:12.414Z,49.53
2018-05-13T13:46:40.025Z,50.35
2018-05-13T13:49:07.643Z,50.41
2018-05-13T13:51:36.920Z,49.92
2018-05-13T13:54:04.538Z,49.65
2018-05-13T13:56:32.127Z,50.14
2018-05-13T13:58:59.827Z,50.04
2018-05-13T14:01:28.069Z,50.29
2018-05-13T14:03:57.437Z,50.66
2018-05-13T14:06:26.125Z,50.47
2018-05-13T14:08:54.770Z,51.58
2018-05-13T14:11:22.650Z,51.08
2018-05-13T14:13:50.860Z,50.87
2018-05-13T14:16:19.102Z,50.14
2018-05-13T14:18:46.730Z,51.36
2018-05-13T14:21:14.314Z,50.78
2018-05-13T14:23:41.991Z,50.94
2018-05-13T14:26:09.587Z,50.46
2018-05-13T14:28:37.178Z,50.69
2018-05-13T14:31:04.798Z,49.18
2018-05-13T14:33:32.395Z,48.67
2018-05-13T14:36:00.161Z,47.16
2018-05-13T14:38:27.790Z,46.95
2018-05-13T14:40:55.682Z,48.01
2018-05-13T14:43:23.329Z,47.37
2018-05-13T14:45:50.941Z,48.03
2018-05-13T14:48:18.592Z,47.10
2018-05-13T14:50:46.241Z,48.58
2018-05-13T14:53:13.820Z,46.23
2018-05-13T14:55:41.452Z,47.34
2018-05-13T14:58:09.712Z,46.71
2018-05-13T15:00:37.289Z,47.85
2018-05-13T15:03:04.905Z,48.13
2018-05-13T15:05:32.480Z,47.20
2018-05-13T15:08:00.102Z,48.20
2018-05-13T15:10:27.940Z,48.02
2018-05-13T15:12:55.683Z,47.13
2018-05-13T15:15:23.429Z,47.13
2018-05-13T15:17:54.813Z,46.59
2018-05-13T15:20:22.517Z,46.86
2018-05-13T15:22:50.140Z,46.03
2018-05-13T15:25:19.240Z,45.63
2018-05-13T15:27:47.027Z,44.27
2018-05-13T15:30:14.655Z,45.49
2018-05-13T15:32:42.274Z,45.25
2018-05-13T15:35:09.848Z,45.46
2018-05-13T15:37:37.465Z,45.22
2018-05-13T15:40:06.190Z,44.84
2018-05-13T15:42:33.873Z,45.47
2018-05-13T15:45:01.450Z,44.45
2018-05-13T15:47:29.175Z,45.26
2018-05-13T15:49:56.745Z,45.11
2018-05-13T15:52:24.499Z,46.90
2018-05-13T15:54:52.161Z,46.88
2018-05-13T15:57:19.777Z,48.42
2018-05-13T15:59:47.384Z,47.39
2018-05-13T16:02:15.256Z,46.85
2018-05-13T16:04:43.664Z,46.56
2018-05-13T16:07:11.295Z,46.95
2018-05-13T16:09:39.693Z,46.59
2018-05-13T16:12:07.391Z,46.59
2018-05-13T16:14:35.590Z,45.40
2018-05-13T16:17:03.227Z,45.60
2018-05-13T16:19:33.025Z,44.18
2018-05-13T16:22:00.850Z,43.51
2018-05-13T16:24:28.549Z,42.18
2018-05-13T16:26:56.116Z,41.25
2018-05-13T16:29:26.177Z,38.22
2018-05-13T16:31:53.828Z,35.83
2018-05-13T16:34:21.409Z,34.89
2018-05-13T16:36:49.564Z,34.49
2018-05-13T16:39:17.224Z,35.08
2018-05-13T16:41:45.009Z,35.09
2018-05-13T16:44:12.585Z,34.36
2018-05-13T16:46:40.213Z,33.48
2018-05-13T16:49:07.831Z,33.44
2018-05-13T16:51:35.413Z,34.11
2018-05-13T16:54:03.025Z,33.79
2018-05-13T16:56:30.637Z,34.10
2018-05-13T16:58:58.215Z,33.57
2018-05-13T17:01:25.845Z,33.99
2018-05-13T17:03:53.416Z,33.62
2018-05-13T17:06:21.038Z,33.70
2018-05-13T17:08:48.609Z,33.07
2018-05-13T17:11:16.205Z,33.89
2018-05-13T17:13:43.812Z,33.98
2018-05-13T17:16:11.490Z,34.25
2018-05-13T17:18:39.123Z,34.17
2018-05-13T17:21:07.789Z,35.20
2018-05-13T17:23:35.491Z,34.78
2018-05-13T17:26:03.297Z,34.29
2018-05-13T17:28:31.265Z,34.96
2018-05-13T17:31:00.854Z,35.32
2018-05-13T17:33:33.356Z,35.14
2018-05-13T17:36:02.140Z,35.57
2018-05-13T17:38:29.876Z,35.94
2018-05-13T17:41:04.828Z,35.95
2018-05-13T17:43:32.712Z,35.95
2018-05-13T17:46:03.036Z,36.87
2018-05-13T17:48:30.640Z,37.24
2018-05-13T17:50:58.261Z,36.78
2018-05-13T17:53:26.141Z,37.23
2018-05-13T17:55:59.984Z,37.61
2018-05-13T17:58:29.979Z,37.89
2018-05-13T18:00:59.148Z,37.61
2018-05-13T18:03:27.197Z,38.01
2018-05-13T18:05:58.374Z,38.44
2018-05-13T18:08:27.940Z,38.00
2018-05-13T18:10:55.547Z,38.31
2018-05-13T18:13:23.131Z,38.67
2018-05-13T18:15:50.739Z,38.31
2018-05-13T18:18:18.317Z,38.14
2018-05-13T18:20:45.939Z,38.76
2018-05-13T18:23:14.590Z,39.58
2018-05-13T18:25:42.970Z,39.76
2018-05-13T18:28:16.667Z,39.99
2018-05-13T18:30:51.409Z,39.94
2018-05-13T18:33:19.220Z,40.20
2018-05-13T18:35:46.844Z,39.95
2018-05-13T18:38:14.445Z,40.97
2018-05-13T18:40:42.660Z,40.56
2018-05-13T18:43:10.647Z,41.27
2018-05-13T18:45:39.017Z,41.24
2018-05-13T18:48:07.647Z,41.65
2018-05-13T18:50:36.126Z,42.95
2018-05-13T18:53:03.708Z,41.76
2018-05-13T18:55:31.402Z,42.65
2018-05-13T18:58:03.109Z,42.17
2018-05-13T19:00:31.013Z,43.13
2018-05-13T19:02:59.232Z,43.31
2018-05-13T19:05:26.853Z,44.08
2018-05-13T19:07:54.420Z,44.93
2018-05-13T19:10:22.171Z,45.20
2018-05-13T19:12:49.768Z,45.87
2018-05-13T19:15:17.347Z,48.46
2018-05-13T19:17:44.955Z,48.72
2018-05-13T19:20:12.529Z,49.80
2018-05-13T19:22:40.232Z,49.87
2018-05-13T19:25:07.858Z,50.43
2018-05-13T19:27:35.429Z,51.23
2018-05-13T19:30:03.233Z,52.38
2018-05-13T19:32:30.980Z,52.81
2018-05-13T19:34:58.592Z,53.58
2018-05-13T19:37:26.257Z,53.82
2018-05-13T19:39:53.859Z,54.02
2018-05-13T19:42:21.439Z,54.46
2018-05-13T19:44:49.052Z,55.51
2018-05-13T19:47:16.782Z,55.33
2018-05-13T19:49:44.732Z,56.02
2018-05-13T19:52:12.905Z,56.40
2018-05-13T19:54:40.864Z,56.25
2018-05-13T19:57:09.142Z,56.98
2018-05-13T19:59:37.152Z,57.48
2018-05-13T20:02:04.834Z,57.50
2018-05-13T20:04:32.817Z,57.96
2018-05-13T20:07:01.275Z,58.44
2018-05-13T20:09:28.917Z,58.82
2018-05-13T20:11:56.538Z,59.70
2018-05-13T20:14:24.263Z,59.65
2018-05-13T20:16:52.202Z,60.16
2018-05-13T20:19:20.620Z,60.48
2018-05-13T20:21:48.360Z,60.26
2018-05-13T20:24:15.929Z,60.21
2018-05-13T20:26:43.534Z,59.97
2018-05-13T20:29:11.149Z,60.48
2018-05-13T20:31:39.353Z,60.78
2018-05-13T20:34:06.920Z,60.95
2018-05-13T20:36:35.414Z,61.16
2018-05-13T20:39:02.997Z,61.53
2018-05-13T20:41:30.650Z,61.44
2018-05-13T20:43:58.222Z,61.88
2018-05-13T20:46:25.840Z,62.29
2018-05-13T20:48:53.442Z,62.34
2018-05-13T20:51:21.245Z,62.09
2018-05-13T20:53:48.836Z,62.45
2018-05-13T20:56:16.444Z,62.38
2018-05-13T20:58:44.027Z,63.13
2018-05-13T21:01:11.852Z,62.87
2018-05-13T21:03:39.486Z,63.29
2018-05-13T21:06:07.217Z,63.06
2018-05-13T21:08:34.853Z,62.65
2018-05-13T21:11:02.452Z,63.27
2018-05-13T21:13:30.030Z,63.59
2018-05-13T21:15:57.647Z,64.11
2018-05-13T21:18:25.220Z,64.46
2018-05-13T21:20:52.824Z,64.67
2018-05-13T21:23:20.388Z,64.30
2018-05-13T21:25:48.008Z,64.83
2018-05-13T21:28:15.586Z,63.99
2018-05-13T21:30:43.164Z,64.47
2018-05-13T21:33:10.789Z,64.62
2018-05-13T21:35:38.364Z,64.13
2018-05-13T21:38:06.386Z,64.51
2018-05-13T21:40:33.960Z,64.47
2018-05-13T21:43:01.776Z,64.74
2018-05-13T21:45:29.387Z,64.36
2018-05-13T21:47:57.116Z,64.35
2018-05-13T21:50:24.680Z,64.47
2018-05-13T21:52:52.288Z,64.81
2018-05-13T21:55:19.860Z,64.74
2018-05-13T21:57:47.434Z,64.77
2018-05-13T22:00:15.046Z,65.02
2018-05-13T22:02:43.236Z,64.99
2018-05-13T22:05:10.807Z,65.52
2018-05-13T22:07:38.420Z,65.39
2018-05-13T22:10:06.002Z,65.37
2018-05-13T22:12:33.729Z,64.91
2018-05-13T22:15:01.345Z,65.04
2018-05-13T22:17:28.933Z,65.60
2018-05-13T22:19:56.552Z,65.68
2018-05-13T22:22:24.176Z,65.33
2018-05-13T22:24:51.841Z,66.19
2018-05-13T22:27:19.415Z,66.44
2018-05-13T22:29:47.022Z,66.40
2018-05-13T22:32:14.591Z,66.48
2018-05-13T22:34:42.193Z,66.66
2018-05-13T22:37:09.768Z,67.12
2018-05-13T22:39:37.381Z,66.75
2018-05-13T22:42:04.996Z,66.93
2018-05-13T22:44:32.597Z,67.25
2018-05-13T22:47:00.271Z,67.35
2018-05-13T22:49:27.844Z,66.52
2018-05-13T22:51:55.465Z,67.04
2018-05-13T22:54:23.035Z,67.54
2018-05-13T22:56:50.649Z,67.52
2018-05-13T22:59:18.241Z,68.18
2018-05-13T23:01:45.850Z,67.96
2018-05-13T23:04:14.017Z,68.25
2018-05-13T23:06:41.584Z,68.53
2018-05-13T23:09:09.399Z,68.16
2018-05-13T23:11:36.977Z,68.19
2018-05-13T23:14:05.160Z,68.02
2018-05-13T23:16:32.772Z,67.99
2018-05-13T23:19:00.381Z,68.89
2018-05-13T23:21:27.955Z,69.16
2018-05-13T23:23:55.772Z,68.54
2018-05-13T23:26:23.349Z,68.70
2018-05-13T23:28:50.960Z,68.20
2018-05-13T23:31:18.532Z,68.37
2018-05-13T23:33:46.151Z,67.63
2018-05-13T23:36:13.725Z,68.05
2018-05-13T23:38:41.494Z,68.15
2018-05-13T23:41:09.064Z,68.38
2018-05-13T23:43:36.721Z,69.02
2018-05-13T23:46:04.277Z,69.22
2018-05-13T23:48:31.857Z,68.71
2018-05-13T23:51:00.144Z,69.54
2018-05-13T23:53:28.084Z,68.73
2018-05-13T23:55:55.657Z,68.98
2018-05-13T23:58:23.265Z,69.53
